createdAt,value
2022-09-23T00:01:26.045Z,75.80
2022-09-23T00:03:54.083Z,74.89
2022-09-23T00:06:23.466Z,70.52
2022-09-23T00:08:52.061Z,69.65
2022-09-23T00:11:22.833Z,69.22
2022-09-23T00:13:52.704Z,72.64
2022-09-23T00:16:24.300Z,69.86
2022-09-23T00:18:52.002Z,71.41
2022-09-23T00:21:21.184Z,72.69
2022-09-23T00:23:49.554Z,74.50
2022-09-23T00:26:19.116Z,72.87
2022-09-23T00:28:47.974Z,70.89
2022-09-23T00:31:18.140Z,73.00
2022-09-23T00:33:45.963Z,73.53
2022-09-23T00:36:15.851Z,72.45
2022-09-23T00:38:44.396Z,71.51
2022-09-23T00:41:18.342Z,71.53
2022-09-23T00:43:50.493Z,72.18
2022-09-23T00:46:29.310Z,74.72
2022-09-23T00:49:13.046Z,77.26
2022-09-23T00:51:45.134Z,77.62
2022-09-23T00:54:13.223Z,74.53
2022-09-23T00:56:41.035Z,73.13
2022-09-23T00:59:10.024Z,76.02
2022-09-23T01:01:38.675Z,73.33
2022-09-23T01:04:07.844Z,73.49
2022-09-23T01:06:35.963Z,74.69
2022-09-23T01:09:03.992Z,73.99
2022-09-23T01:11:37.442Z,74.65
2022-09-23T01:14:42.046Z,75.04
2022-09-23T01:17:15.875Z,73.76
2022-09-23T01:20:15.319Z,75.18
2022-09-23T01:23:12.361Z,73.57
2022-09-23T01:26:04.933Z,75.49
2022-09-23T01:29:07.103Z,72.69
2022-09-23T01:31:45.086Z,73.17
2022-09-23T01:34:51.042Z,73.16
2022-09-23T01:37:28.747Z,73.61
2022-09-23T01:40:02.817Z,73.07
2022-09-23T01:42:39.703Z,72.81
2022-09-23T01:45:12.898Z,74.51
2022-09-23T01:47:45.264Z,74.17
2022-09-23T01:50:38.409Z,74.64
2022-09-23T01:53:11.942Z,76.37
2022-09-23T01:55:47.904Z,74.37
2022-09-23T01:58:24.613Z,76.41
2022-09-23T02:01:00.454Z,73.64
2022-09-23T02:03:35.517Z,75.87
2022-09-23T02:06:12.783Z,74.42
2022-09-23T02:09:06.335Z,74.33
2022-09-23T02:11:36.496Z,74.01
2022-09-23T02:14:23.576Z,76.33
2022-09-23T02:16:52.962Z,76.69
2022-09-23T02:19:27.292Z,76.41
2022-09-23T02:22:23.627Z,74.41
2022-09-23T02:24:51.837Z,75.05
2022-09-23T02:27:34.826Z,76.75
2022-09-23T02:30:09.598Z,78.67
2022-09-23T02:33:04.332Z,78.44
2022-09-23T02:35:49.119Z,80.78
2022-09-23T02:38:40.124Z,78.77
2022-09-23T02:41:28.295Z,76.90
2022-09-23T02:44:11.366Z,79.49
2022-09-23T02:46:39.579Z,75.64
2022-09-23T02:49:23.533Z,74.24
2022-09-23T02:51:51.713Z,72.01
2022-09-23T02:54:22.442Z,72.57
2022-09-23T02:56:50.312Z,71.52
2022-09-23T02:59:19.682Z,72.84
2022-09-23T03:02:08.043Z,73.20
2022-09-23T03:04:47.463Z,73.44
2022-09-23T03:07:19.604Z,76.27
2022-09-23T03:09:57.516Z,73.57
2022-09-23T03:12:49.493Z,74.22
2022-09-23T03:15:35.446Z,74.25
2022-09-23T03:18:31.765Z,76.09
2022-09-23T03:21:04.241Z,76.90
2022-09-23T03:23:35.890Z,77.49
2022-09-23T03:26:12.476Z,76.84
2022-09-23T03:28:43.842Z,74.07
2022-09-23T03:31:13.335Z,73.93
2022-09-23T03:33:46.184Z,76.50
2022-09-23T03:36:35.714Z,77.29
2022-09-23T03:39:08.326Z,76.13
2022-09-23T03:41:45.378Z,78.24
2022-09-23T03:44:13.009Z,78.07
2022-09-23T03:46:44.185Z,76.00
2022-09-23T03:49:24.498Z,75.74
2022-09-23T03:51:52.433Z,78.87
2022-09-23T03:54:20.503Z,76.34
2022-09-23T03:56:48.219Z,77.31
2022-09-23T03:59:16.864Z,79.23
2022-09-23T04:01:46.115Z,78.41
2022-09-23T04:04:14.184Z,75.43
2022-09-23T04:06:41.843Z,78.28
2022-09-23T04:09:09.779Z,77.78
2022-09-23T04:11:37.804Z,74.23
2022-09-23T04:14:05.809Z,73.78
2022-09-23T04:16:33.490Z,73.75
2022-09-23T04:19:01.500Z,73.63
2022-09-23T04:21:31.203Z,73.69
2022-09-23T04:23:58.974Z,74.81
2022-09-23T04:26:27.024Z,75.81
2022-09-23T04:28:55.355Z,74.82
2022-09-23T04:31:23.972Z,74.98
2022-09-23T04:33:55.223Z,75.07
2022-09-23T04:36:23.093Z,75.67
2022-09-23T04:38:51.202Z,78.46
2022-09-23T04:41:20.124Z,74.78
2022-09-23T04:43:47.775Z,74.57
2022-09-23T04:46:16.403Z,77.72
2022-09-23T04:48:44.983Z,75.70
2022-09-23T04:51:15.465Z,75.13
2022-09-23T04:53:45.034Z,76.92
2022-09-23T04:56:18.717Z,78.07
2022-09-23T04:58:46.734Z,78.49
2022-09-23T05:01:20.265Z,81.11
2022-09-23T05:03:48.284Z,80.59
2022-09-23T05:06:16.394Z,75.93
2022-09-23T05:08:52.067Z,76.84
2022-09-23T05:11:20.889Z,76.58
2022-09-23T05:13:49.752Z,77.24
2022-09-23T05:16:18.263Z,77.34
2022-09-23T05:18:46.894Z,79.30
2022-09-23T05:21:17.402Z,78.16
2022-09-23T05:23:50.343Z,77.17
2022-09-23T05:26:18.283Z,76.78
2022-09-23T05:28:45.924Z,74.66
2022-09-23T05:31:20.596Z,74.20
2022-09-23T05:33:54.348Z,74.04
2022-09-23T05:36:23.008Z,72.50
2022-09-23T05:38:51.734Z,70.89
2022-09-23T05:41:23.123Z,72.32
2022-09-23T05:43:52.513Z,70.62
2022-09-23T05:46:23.430Z,67.12
2022-09-23T05:48:51.824Z,69.33
2022-09-23T05:51:21.840Z,72.09
2022-09-23T05:53:52.796Z,72.85
2022-09-23T05:56:23.085Z,70.47
2022-09-23T05:58:51.843Z,69.39
2022-09-23T06:01:22.064Z,67.64
2022-09-23T06:03:57.347Z,67.59
2022-09-23T06:06:36.653Z,67.26
2022-09-23T06:09:06.646Z,66.79
2022-09-23T06:11:36.020Z,64.93
2022-09-23T06:14:04.245Z,66.23
2022-09-23T06:16:34.136Z,64.13
2022-09-23T06:19:06.602Z,62.92
2022-09-23T06:21:37.557Z,60.48
2022-09-23T06:24:06.422Z,59.66
2022-09-23T06:26:35.347Z,61.80
2022-09-23T06:29:08.811Z,62.98
2022-09-23T06:31:36.491Z,58.25
2022-09-23T06:34:11.817Z,61.16
2022-09-23T06:36:44.533Z,61.12
2022-09-23T06:39:16.768Z,58.20
2022-09-23T06:41:45.512Z,56.16
2022-09-23T06:44:14.487Z,56.03
2022-09-23T06:46:42.443Z,60.35
2022-09-23T06:49:10.795Z,60.06
2022-09-23T06:51:40.369Z,57.12
2022-09-23T06:54:08.469Z,56.36
2022-09-23T06:56:39.079Z,58.23
2022-09-23T06:59:10.926Z,60.06
2022-09-23T07:01:39.296Z,60.73
2022-09-23T07:04:07.960Z,58.11
2022-09-23T07:06:36.257Z,58.82
2022-09-23T07:09:05.467Z,57.54
2022-09-23T07:11:33.718Z,53.33
2022-09-23T07:14:01.825Z,57.84
2022-09-23T07:16:29.788Z,51.99
2022-09-23T07:18:57.947Z,53.05
2022-09-23T07:21:26.156Z,52.28
2022-09-23T07:23:55.437Z,50.35
2022-09-23T07:26:24.167Z,49.08
2022-09-23T07:28:56.046Z,51.09
2022-09-23T07:31:35.484Z,49.15
2022-09-23T07:34:07.939Z,48.08
2022-09-23T07:36:37.623Z,48.34
2022-09-23T07:39:05.437Z,48.08
2022-09-23T07:41:34.665Z,49.45
2022-09-23T07:44:03.316Z,48.65
2022-09-23T07:46:33.575Z,49.67
2022-09-23T07:49:03.164Z,52.08
2022-09-23T07:51:36.305Z,48.74
2022-09-23T07:54:08.002Z,45.61
2022-09-23T07:56:37.240Z,46.07
2022-09-23T07:59:09.028Z,45.27
2022-09-23T08:01:39.989Z,42.97
2022-09-23T08:04:12.676Z,46.72
2022-09-23T08:06:48.658Z,47.97
2022-09-23T08:09:18.764Z,46.19
2022-09-23T08:11:46.705Z,44.22
2022-09-23T08:14:15.567Z,46.87
2022-09-23T08:16:45.477Z,42.67
2022-09-23T08:19:13.990Z,43.92
2022-09-23T08:21:42.450Z,46.84
2022-09-23T08:24:14.837Z,43.76
2022-09-23T08:26:43.604Z,45.38
2022-09-23T08:29:18.985Z,44.56
2022-09-23T08:31:46.967Z,47.21
2022-09-23T08:34:15.500Z,42.37
2022-09-23T08:36:43.327Z,42.98
2022-09-23T08:39:17.819Z,44.06
2022-09-23T08:42:04.104Z,41.86
2022-09-23T08:44:37.754Z,43.85
2022-09-23T08:47:43.903Z,45.16
2022-09-23T08:50:18.624Z,46.94
2022-09-23T08:52:57.204Z,47.00
2022-09-23T08:55:35.306Z,43.13
2022-09-23T08:58:31.319Z,42.00
2022-09-23T09:01:15.875Z,45.04
2022-09-23T09:04:09.440Z,45.71
2022-09-23T09:06:53.038Z,45.99
2022-09-23T09:09:53.350Z,45.84
2022-09-23T09:12:27.025Z,43.63
2022-09-23T09:14:57.663Z,39.58
2022-09-23T09:17:50.915Z,42.56
2022-09-23T09:20:23.408Z,45.37
2022-09-23T09:22:57.896Z,42.90
2022-09-23T09:25:44.635Z,45.81
2022-09-23T09:28:36.035Z,44.30
2022-09-23T09:31:28.466Z,46.37
2022-09-23T09:34:33.936Z,42.44
2022-09-23T09:37:07.724Z,41.37
2022-09-23T09:39:37.073Z,38.83
2022-09-23T09:42:07.694Z,43.09
2022-09-23T09:44:50.444Z,43.55
2022-09-23T09:47:46.979Z,40.65
2022-09-23T09:50:22.259Z,39.06
2022-09-23T09:52:51.318Z,39.98
2022-09-23T09:55:28.988Z,39.32
2022-09-23T09:58:04.299Z,39.42
2022-09-23T10:00:39.231Z,37.72
2022-09-23T10:03:33.980Z,35.42
2022-09-23T10:06:17.530Z,39.44
2022-09-23T10:09:09.524Z,37.57
2022-09-23T10:11:38.467Z,37.58
2022-09-23T10:14:17.916Z,36.72
2022-09-23T10:16:48.919Z,40.54
2022-09-23T10:19:26.584Z,38.15
2022-09-23T10:22:00.370Z,39.08
2022-09-23T10:24:31.159Z,39.93
2022-09-23T10:27:09.704Z,39.29
2022-09-23T10:29:50.454Z,38.49
2022-09-23T10:32:30.455Z,41.24
2022-09-23T10:35:01.765Z,41.64
2022-09-23T10:37:44.775Z,41.92
2022-09-23T10:41:02.461Z,42.12
2022-09-23T10:43:51.800Z,44.06
2022-09-23T10:46:41.171Z,45.65
2022-09-23T10:49:46.016Z,45.45
2022-09-23T10:52:23.354Z,39.26
2022-09-23T10:55:28.539Z,39.77
2022-09-23T10:58:24.907Z,39.56
2022-09-23T11:01:05.508Z,44.08
2022-09-23T11:04:16.640Z,48.38
2022-09-23T11:06:50.673Z,43.64
2022-09-23T11:09:40.688Z,43.43
2022-09-23T11:12:14.988Z,47.09
2022-09-23T11:15:07.744Z,46.40
2022-09-23T11:18:02.956Z,40.87
2022-09-23T11:20:40.997Z,43.53
2022-09-23T11:23:27.391Z,42.02
2022-09-23T11:26:22.796Z,42.66
2022-09-23T11:29:17.186Z,41.94
2022-09-23T11:32:27.709Z,39.93
2022-09-23T11:35:20.937Z,40.53
2022-09-23T11:37:53.148Z,40.24
2022-09-23T11:40:30.685Z,39.65
2022-09-23T11:43:24.092Z,37.16
2022-09-23T11:46:01.011Z,37.07
2022-09-23T11:48:35.754Z,40.50
2022-09-23T11:51:07.094Z,40.26
2022-09-23T11:53:43.391Z,33.94
2022-09-23T11:56:49.634Z,34.33
2022-09-23T12:02:28.250Z,39.06
2022-09-23T12:05:09.154Z,41.27
2022-09-23T12:08:03.777Z,33.60
2022-09-23T12:10:46.428Z,35.00
2022-09-23T12:13:21.369Z,38.41
2022-09-23T12:15:52.489Z,39.38
2022-09-23T12:18:25.947Z,38.00
2022-09-23T12:21:02.550Z,32.53
2022-09-23T12:23:51.450Z,34.79
2022-09-23T12:26:22.324Z,33.94
2022-09-23T12:28:53.083Z,34.49
2022-09-23T12:31:30.771Z,36.64
2022-09-23T12:34:00.784Z,35.76
2022-09-23T12:36:36.020Z,38.45
2022-09-23T12:39:18.075Z,38.75
2022-09-23T12:41:51.652Z,40.55
2022-09-23T12:44:41.522Z,36.37
2022-09-23T12:47:21.194Z,38.23
2022-09-23T12:49:51.041Z,37.48
2022-09-23T12:52:19.169Z,34.46
2022-09-23T12:54:48.732Z,36.78
2022-09-23T12:57:35.062Z,33.41
2022-09-23T13:00:13.205Z,36.24
2022-09-23T13:02:43.871Z,33.84
2022-09-23T13:05:37.972Z,34.23
2022-09-23T13:08:24.942Z,37.33
2022-09-23T13:10:56.123Z,34.94
2022-09-23T13:13:42.134Z,35.67
2022-09-23T13:16:26.943Z,37.34
2022-09-23T13:19:00.264Z,37.26
2022-09-23T13:21:43.737Z,36.69
2022-09-23T13:24:23.299Z,37.05
2022-09-23T13:26:53.748Z,36.42
2022-09-23T13:29:33.476Z,38.86
2022-09-23T13:32:03.511Z,36.95
2022-09-23T13:34:35.357Z,39.58
2022-09-23T13:37:23.536Z,40.82
2022-09-23T13:39:51.457Z,40.44
2022-09-23T13:42:29.887Z,44.56
2022-09-23T13:44:59.156Z,45.67
2022-09-23T13:47:28.840Z,40.28
2022-09-23T13:49:57.140Z,40.02
2022-09-23T13:52:31.966Z,36.25
2022-09-23T13:55:00.280Z,37.88
2022-09-23T13:57:37.159Z,38.53
2022-09-23T14:00:18.648Z,40.63
2022-09-23T14:02:50.327Z,43.73
2022-09-23T14:05:27.408Z,43.28
2022-09-23T14:07:56.219Z,43.48
2022-09-23T14:10:26.009Z,42.85
2022-09-23T14:12:55.469Z,43.15
2022-09-23T14:15:23.680Z,44.15
2022-09-23T14:18:01.711Z,45.06
2022-09-23T14:20:30.545Z,42.00
2022-09-23T14:23:11.994Z,44.60
2022-09-23T14:25:41.152Z,48.62
2022-09-23T14:28:14.442Z,47.54
2022-09-23T14:30:44.813Z,48.39
2022-09-23T14:33:22.454Z,47.70
2022-09-23T14:35:56.862Z,45.14
2022-09-23T14:38:45.605Z,48.36
2022-09-23T14:41:22.289Z,49.40
2022-09-23T14:43:57.327Z,42.80
2022-09-23T14:46:27.815Z,43.18
2022-09-23T14:49:07.840Z,41.64
2022-09-23T14:51:44.043Z,40.63
2022-09-23T14:54:39.102Z,39.99
2022-09-23T14:57:26.816Z,41.36
2022-09-23T15:00:09.854Z,41.48
2022-09-23T15:02:39.996Z,42.88
2022-09-23T15:05:18.536Z,43.07
2022-09-23T15:07:52.084Z,42.27
2022-09-23T15:10:31.938Z,43.28
2022-09-23T15:13:20.238Z,47.11
2022-09-23T15:15:48.140Z,48.03
2022-09-23T15:18:20.714Z,48.29
2022-09-23T15:20:53.429Z,49.04
2022-09-23T15:23:49.167Z,49.29
2022-09-23T15:26:41.165Z,48.46
2022-09-23T15:29:10.015Z,52.57
2022-09-23T15:31:37.900Z,53.36
2022-09-23T15:34:05.991Z,56.88
2022-09-23T15:36:35.053Z,56.73
2022-09-23T15:39:05.740Z,57.82
2022-09-23T15:41:33.802Z,54.32
2022-09-23T15:44:05.673Z,52.30
2022-09-23T15:46:34.128Z,55.81
2022-09-23T15:49:09.501Z,55.05
2022-09-23T15:51:38.741Z,56.87
2022-09-23T15:54:12.584Z,54.54
2022-09-23T15:56:40.462Z,55.51
2022-09-23T15:59:08.577Z,61.12
2022-09-23T16:01:36.907Z,61.78
2022-09-23T16:04:05.373Z,63.68
2022-09-23T16:06:36.203Z,62.57
2022-09-23T16:09:03.981Z,58.19
2022-09-23T16:11:33.013Z,60.68
2022-09-23T16:14:00.983Z,59.92
2022-09-23T16:16:29.506Z,59.25
2022-09-23T16:18:57.594Z,57.35
2022-09-23T16:21:26.862Z,56.87
2022-09-23T16:23:57.411Z,56.72
2022-09-23T16:26:36.014Z,56.25
2022-09-23T16:29:03.807Z,57.13
2022-09-23T16:31:31.987Z,57.46
2022-09-23T16:34:02.615Z,59.09
2022-09-23T16:36:32.042Z,59.30
2022-09-23T16:39:02.165Z,59.55
2022-09-23T16:41:31.694Z,60.52
2022-09-23T16:44:01.086Z,61.40
2022-09-23T16:46:29.519Z,62.22
2022-09-23T16:48:58.365Z,62.98
2022-09-23T16:51:29.236Z,63.59
2022-09-23T16:53:58.845Z,64.41
2022-09-23T16:56:29.322Z,65.52
2022-09-23T16:58:57.600Z,65.10
2022-09-23T17:01:46.602Z,67.97
2022-09-23T17:04:16.459Z,66.34
2022-09-23T17:06:46.496Z,64.43
2022-09-23T17:09:14.724Z,64.72
2022-09-23T17:11:44.074Z,65.73
2022-09-23T17:14:11.874Z,66.21
2022-09-23T17:16:39.876Z,66.57
2022-09-23T17:19:08.886Z,67.54
2022-09-23T17:21:37.001Z,66.59
2022-09-23T17:24:05.500Z,66.78
2022-09-23T17:26:33.657Z,67.60
2022-09-23T17:29:02.210Z,68.14
2022-09-23T17:31:30.763Z,68.86
2022-09-23T17:33:58.605Z,69.31
2022-09-23T17:36:28.156Z,69.07
2022-09-23T17:38:56.268Z,69.13
2022-09-23T17:41:24.395Z,69.18
2022-09-23T17:43:56.883Z,69.16
2022-09-23T17:46:24.888Z,68.63
2022-09-23T17:48:55.811Z,68.79
2022-09-23T17:51:25.533Z,70.55
2022-09-23T17:53:53.314Z,72.07
2022-09-23T17:56:25.816Z,69.91
2022-09-23T17:58:54.107Z,70.56
2022-09-23T18:01:24.185Z,69.14
2022-09-23T18:04:00.306Z,68.14
2022-09-23T18:06:31.858Z,70.68
2022-09-23T18:09:01.747Z,69.95
2022-09-23T18:11:31.707Z,69.42
2022-09-23T18:14:14.233Z,68.49
2022-09-23T18:16:44.346Z,68.72
2022-09-23T18:19:15.091Z,68.86
2022-09-23T18:21:46.255Z,68.59
2022-09-23T18:27:02.146Z,70.78
2022-09-23T18:29:30.637Z,68.86
2022-09-23T18:31:59.503Z,68.85
2022-09-23T18:34:28.778Z,69.08
2022-09-23T18:36:56.880Z,70.24
2022-09-23T18:39:24.670Z,69.52
2022-09-23T18:41:52.433Z,72.86
2022-09-23T18:44:20.525Z,74.64
2022-09-23T18:46:48.257Z,70.87
2022-09-23T18:49:34.279Z,71.59
2022-09-23T18:52:02.707Z,73.61
2022-09-23T18:54:30.557Z,75.49
2022-09-23T18:56:59.480Z,73.56
2022-09-23T18:59:29.724Z,71.66
2022-09-23T19:01:57.944Z,71.68
2022-09-23T19:04:26.825Z,70.76
2022-09-23T19:06:56.826Z,72.71
2022-09-23T19:09:25.084Z,72.46
2022-09-23T19:11:53.006Z,73.62
2022-09-23T19:14:21.510Z,74.52
2022-09-23T19:16:49.456Z,72.06
2022-09-23T19:19:17.272Z,71.47
2022-09-23T19:21:45.376Z,72.64
2022-09-23T19:24:16.255Z,72.53
2022-09-23T19:26:44.399Z,72.58
2022-09-23T19:29:19.717Z,74.24
2022-09-23T19:31:48.548Z,73.29
2022-09-23T19:34:23.993Z,72.39
2022-09-23T19:36:52.979Z,72.17
2022-09-23T19:39:26.621Z,73.33
2022-09-23T19:41:56.065Z,72.84
2022-09-23T19:44:25.275Z,72.96
2022-09-23T19:46:56.411Z,74.17
2022-09-23T19:49:25.640Z,74.48
2022-09-23T19:51:56.237Z,74.66
2022-09-23T19:54:26.730Z,73.92
2022-09-23T19:56:54.952Z,73.65
2022-09-23T19:59:22.645Z,72.77
2022-09-23T20:01:50.586Z,73.10
2022-09-23T20:04:18.850Z,73.61
2022-09-23T20:06:50.635Z,73.07
2022-09-23T20:09:20.944Z,73.85
2022-09-23T20:11:56.783Z,73.56
2022-09-23T20:14:29.767Z,74.05
2022-09-23T20:17:01.615Z,74.65
2022-09-23T20:19:29.795Z,74.42
2022-09-23T20:22:16.085Z,76.57
2022-09-23T20:24:44.096Z,76.12
2022-09-23T20:27:11.895Z,75.02
2022-09-23T20:29:39.494Z,74.25
2022-09-23T20:32:07.496Z,72.59
2022-09-23T20:34:35.365Z,73.97
2022-09-23T20:37:04.484Z,73.24
2022-09-23T20:39:32.514Z,72.66
2022-09-23T20:42:00.602Z,74.02
2022-09-23T20:44:28.554Z,75.30
2022-09-23T20:46:56.569Z,79.24
2022-09-23T20:49:24.366Z,73.79
2022-09-23T20:51:51.974Z,72.42
2022-09-23T20:54:20.037Z,73.73
2022-09-23T20:56:47.921Z,72.80
2022-09-23T20:59:17.965Z,76.32
2022-09-23T21:01:47.830Z,77.46
2022-09-23T21:04:15.652Z,78.38
2022-09-23T21:06:43.444Z,78.56
2022-09-23T21:09:11.445Z,76.38
2022-09-23T21:11:39.083Z,74.34
2022-09-23T21:14:06.846Z,72.94
2022-09-23T21:16:35.654Z,73.41
2022-09-23T21:19:04.453Z,74.03
2022-09-23T21:21:32.594Z,74.35
2022-09-23T21:24:23.798Z,78.96
2022-09-23T21:26:50.590Z,77.40
2022-09-23T21:29:18.543Z,77.77
2022-09-23T21:31:49.170Z,75.70
2022-09-23T21:34:16.815Z,73.60
2022-09-23T21:36:44.964Z,73.91
2022-09-23T21:39:12.874Z,73.49
2022-09-23T21:41:40.535Z,73.35
2022-09-23T21:44:08.733Z,72.49
2022-09-23T21:46:37.124Z,76.18
2022-09-23T21:49:05.344Z,73.55
2022-09-23T21:51:40.853Z,76.95
2022-09-23T21:54:15.755Z,80.05
2022-09-23T21:56:44.338Z,75.77
2022-09-23T21:59:12.089Z,73.36
2022-09-23T22:01:43.725Z,73.41
2022-09-23T22:04:17.616Z,73.92
2022-09-23T22:06:46.445Z,77.59
2022-09-23T22:09:17.077Z,77.11
2022-09-23T22:12:04.042Z,74.46
2022-09-23T22:14:32.196Z,73.39
2022-09-23T22:17:02.862Z,74.27
2022-09-23T22:19:33.313Z,73.94
2022-09-23T22:22:12.975Z,76.14
2022-09-23T22:24:41.797Z,74.79
2022-09-23T22:27:11.293Z,75.12
2022-09-23T22:29:57.644Z,75.49
2022-09-23T22:32:40.837Z,73.78
2022-09-23T22:35:11.073Z,73.56
2022-09-23T22:37:39.390Z,74.53
2022-09-23T22:40:10.561Z,74.61
2022-09-23T22:42:40.629Z,72.65
2022-09-23T22:45:10.485Z,72.48
2022-09-23T22:47:39.761Z,73.02
2022-09-23T22:50:09.228Z,76.27
2022-09-23T22:52:38.020Z,74.12
2022-09-23T22:55:08.271Z,73.55
2022-09-23T22:57:36.862Z,75.99
2022-09-23T23:00:06.074Z,76.00
2022-09-23T23:02:33.774Z,76.06
2022-09-23T23:05:02.392Z,75.69
2022-09-23T23:07:30.424Z,73.87
2022-09-23T23:09:58.294Z,74.82
2022-09-23T23:12:25.926Z,76.35
2022-09-23T23:14:53.886Z,73.47
2022-09-23T23:17:21.953Z,75.12
2022-09-23T23:19:51.005Z,73.87
2022-09-23T23:22:19.004Z,73.66
2022-09-23T23:24:46.836Z,73.50
2022-09-23T23:27:14.518Z,74.18
2022-09-23T23:29:42.496Z,73.86
2022-09-23T23:32:10.133Z,74.33
2022-09-23T23:34:37.870Z,78.86
2022-09-23T23:37:05.866Z,76.35
2022-09-23T23:39:33.989Z,79.58
2022-09-23T23:42:01.591Z,80.48
2022-09-23T23:44:31.244Z,76.44
2022-09-23T23:46:58.977Z,74.58
2022-09-23T23:49:26.564Z,74.88
2022-09-23T23:51:54.627Z,74.01
2022-09-23T23:54:22.314Z,74.48
2022-09-23T23:56:50.205Z,75.33
2022-09-23T23:59:20.116Z,75.68
